Tiempo atmosférico en la estación meteorológica de Lanaja, Huesca (380 m.)



Fecha
DESCASC
Temp. máxima en grados centígrados (hora)
DESCASC
Temp. mínima en grados centígrados (hora)
DESCASC
Temp. media en grados centígrados
DESCASC
Racha de viento máxima en m/sg (hora)
DESCASC
Velocidad máxima media en intervalos de 10 minutos(hora)
DESCASC
Precipitaciones diarias en mm
DESCASC
Precipitaciones de 00:00 a 06:00 en mm
DESCASC
Precipitaciones de 06:00 a 12:00 en mm
DESCASC
Precipitaciones de 12:00 a 18:00 en mm
DESCASC
Precipitaciones de 18:00 a 24:00 en mm
DESCASC
30-11-2020 13.3 (13:30) 4.7 (05:30) 9 3.06 (15:10) 2.22 (16:40) 0 0 0 0 0
29-11-2020 16.1 (15:00) 7 (00:00) 11.6 3.89 (21:30) 3.06 (22:20) 0 0 0 0 0
28-11-2020 13 (15:40) 7.7 (00:00) 10.3 6.11 (16:00) 3.33 (11:10) 0.2 0.2 0 0 0
27-11-2020 14 (16:10) 9.7 (00:00) 11.8 9.17 (18:10) 5.83 (18:10) 1.8 1.6 0.2 0 0
26-11-2020 13.2 (13:10) 7.3 (00:00) 10.3 7.78 (13:20) 3.89 (13:20) 0.6 0 0.2 0.4 0
25-11-2020 13.6 (15:40) 5 (00:00) 9.3 6.39 (15:30) 3.89 (15:30) 0 0 0 0 0
24-11-2020 12.3 (14:50) 1.8 (00:00) 7.1 4.17 (15:10) 2.5 (14:30) 0 0 0 0 0
23-11-2020 12.7 (15:40) 0.6 (00:00) 6.6 2.78 (14:00) 1.94 (04:10) 0 0 0 0 0
22-11-2020 13.2 (14:50) 1.4 (00:00) 7.3 3.89 (22:50) 3.61 (22:50) 0 0 0 0 0
21-11-2020 13 (15:20) 1 (00:00) 7 3.89 (11:30) 2.78 (00:20) 0 0 0 0 0
20-11-2020 15.8 (14:40) 5.2 (00:00) 10.5 11.94 (07:20) 8.61 (10:00) 0 0 0 0 0
19-11-2020 20.4 (15:00) 5.9 (00:00) 13.1 17.5 (17:10) 11.67 (17:50) 0 0 0 0 0
18-11-2020 17 (15:00) 6 (00:00) 11.5 4.17 (16:40) 2.5 (16:50) 0 0 0 0 0
17-11-2020 15.7 (14:40) 5.7 (00:00) 10.7 5 (12:00) 3.06 (07:20) 0 0 0 0 0
16-11-2020 17 (13:00) 8.7 (00:00) 12.8 15.83 (14:20) 11.67 (14:20) 0.2 0 0 0.2 0
15-11-2020 18.6 (14:50) 8.9 (00:00) 13.8 4.72 (13:20) 2.78 (13:10) 0 0 0 0 0
14-11-2020 14.1 (14:50) 8 (00:00) 11.1 4.72 (13:50) 2.78 (13:10) 0 0 0 0 0
13-11-2020 12.7 (16:40) 7.5 (00:00) 10.1 3.61 (11:40) 2.5 (11:40) 0.2 0.2 0 0 0
12-11-2020 9.5 (14:50) 6 (00:00) 7.8 3.06 (17:50) 2.5 (05:00) 0.2 0.2 0 0 0
11-11-2020 9.6 (15:30) 5.5 (00:00) 7.6 2.5 (11:40) 1.67 (17:00) 0.4 0.2 0.2 0 0
10-11-2020 14.2 (17:00) 7.8 (00:00) 11 7.78 (00:40) 5.56 (00:40) 0 0 0 0 0
09-11-2020 16 (17:10) 6.8 (00:00) 11.4 5.83 (22:30) 4.72 (21:40) 0 0 0 0 0
08-11-2020 15.8 (15:20) 6.9 (00:00) 11.4 4.44 (15:30) 2.78 (15:30) 0.2 0.2 0 0 0
07-11-2020 15.7 (05:20) 11.8 (00:00) 13.8 16.67 (07:40) 9.44 (03:40) 13.8 0 12.8 1 0
06-11-2020 16.7 (14:30) 12.2 (00:00) 14.5 13.06 (21:40) 7.78 (12:00) 0.2 0.2 0 0 0
05-11-2020 14 (15:40) 7.1 (00:00) 10.5 10 (23:30) 6.11 (23:30) 1.2 0 0 0 1.2
04-11-2020 10.1 (00:00) 7.2 (00:00) 8.7 7.5 (00:40) 5.28 (00:40) 1.6 0.2 1 0.4 0
03-11-2020 17.1 (00:00) 10 (00:00) 13.6 11.11 (18:50) 8.06 (16:50) 0 0 0 0 0
02-11-2020 24.2 (15:20) 11.2 (00:00) 17.7 6.67 (20:40) 5.28 (20:40) 0 0 0 0 0

Gráficas

Temp. máximas Temp. mínimas Temp. medias Precipitaciones Rachas de viento máximas Velocidades máximas media en intervalos de 10 minutos

Datos horarios

Fecha y hora oficial Temperatura (ºC) Velocidad del viento (km/h) Dirección del viento Racha (km/h) Dirección de racha Precipitación (mm) Presión (hPa) Tendencia (hPa) Humedad (%)
2020-12-01 23:00:00 9.2 45 Noroeste 63 Noroeste 0 -- -- 67
2020-12-01 22:00:00 9.6 38 Noroeste 59 Noroeste 0.2 -- -- 67
2020-12-01 21:00:00 9.3 28 Noroeste 44 Noroeste 0 -- -- 65
2020-12-01 20:00:00 9.3 31 Noroeste 49 Noroeste 0 -- -- 64
2020-12-01 19:00:00 9.4 23 Noroeste 35 Noroeste 0 -- -- 63
2020-12-01 18:00:00 6.6 0 Calma 6 Noroeste 0 -- -- 89
2020-12-01 17:00:00 7.3 3 Sur 10 Sudeste 0 -- -- 87
2020-12-01 16:00:00 8.1 6 Sudeste 9 Sudeste 0 -- -- 84
2020-12-01 15:00:00 8.4 5 Sur 9 Sur 0 -- -- 83
2020-12-01 14:00:00 7.7 4 Este 8 Este 0 -- -- 87
2020-12-01 13:00:00 6.4 5 Nordeste 16 Norte 0 -- -- 94
2020-12-01 12:00:00 5.7 13 Norte 22 Norte 0 -- -- 95
2020-12-01 11:00:00 5 18 Norte 24 Norte 0 -- -- 97
2020-12-01 10:00:00 2.7 3 Noroeste 8 Noroeste 0 -- -- 96
2020-12-01 09:00:00 3 5 Noroeste 8 Noroeste 0 -- -- 96
2020-12-01 08:00:00 2.8 6 Sudoeste 12 Sudoeste 0 -- -- 96
2020-12-01 07:00:00 2.8 9 Sudoeste 12 Sudoeste 0 -- -- 96
2020-12-01 06:00:00 3.4 2 Sudoeste 6 Sudoeste 0 -- -- 96
2020-12-01 05:00:00 3.3 0 Calma 7 Sudoeste 0 -- -- 96
2020-12-01 04:00:00 3.1 4 Sudoeste 10 Noroeste 0 -- -- 96
2020-12-01 03:00:00 3.2 9 Noroeste 12 Noroeste 0 -- -- 95
2020-12-01 02:00:00 4.1 0 Calma 9 Sur 0 -- -- 96
2020-12-01 01:00:00 5 5 Sudoeste 8 Sudoeste 0.2 -- -- 96
2020-12-01 00:00:00 5 6 Sudoeste 9 Sudoeste 0 -- -- 95
2020-11-30 23:00:00 5.7 4 Nordeste 9 Sur 0 -- -- 95
2020-11-30 22:00:00 5.4 0 Calma 10 Sur 0 -- -- 95
2020-11-30 21:00:00 6.3 5 Sur 8 Sur 0 -- -- 95
2020-11-30 20:00:00 6.5 5 Sur 9 Sur 0 -- -- 95
2020-11-30 19:00:00 6.5 2 Sudeste 9 Sur 0 -- -- 94
2020-11-30 18:00:00 7.2 6 Sur 10 Sur 0 -- -- 93
2020-11-30 17:00:00 8.6 7 Sur 11 Sur 0 -- -- 89
2020-11-30 16:00:00 11.4 5 Sur 11 Sudeste 0 -- -- 78
2020-11-30 15:00:00 11.5 6 Sudeste 10 Sudeste 0 -- -- 77
2020-11-30 14:00:00 12.9 5 Sur 9 Sur 0 -- -- 71
2020-11-30 13:00:00 12.4 4 Sudeste 10 Sudeste 0 -- -- 72
2020-11-30 12:00:00 11.4 5 Sudeste 10 Sur 0 -- -- 75
2020-11-30 11:00:00 9.9 6 Sur 10 Sur 0 -- -- 80
2020-11-30 10:00:00 7.1 6 Nordeste 7 Nordeste 0 -- -- 89
2020-11-30 09:00:00 6.1 3 Sur 5 Nordeste 0 -- -- 93
2020-11-30 08:00:00 5.3 2 Sur 5 Sudoeste 0 -- -- 94
2020-11-30 07:00:00 5.3 2 Oeste 7 Norte 0 -- -- 94
2020-11-30 06:00:00 4.9 7 Noroeste 10 Noroeste 0 -- -- 93
2020-11-30 05:00:00 7.5 3 Norte 7 Norte 0 -- -- 91
2020-11-30 04:00:00 6.9 0 Calma 3 Sudoeste 0 -- -- 90
2020-11-30 03:00:00 7.3 2 Sudoeste 5 Sudoeste 0 -- -- 90
2020-11-30 02:00:00 7.9 3 Sur 4 Sur 0 -- -- 86
2020-11-30 01:00:00 8.3 0 Calma 3 Noroeste 0 -- -- 86
2020-11-30 00:00:00 8.4 0 Calma 9 Norte 0 -- -- 85
2020-11-29 23:00:00 8.7 7 Noroeste 13 Norte 0 -- -- 86
2020-11-29 22:00:00 7.8 9 Norte 14 Oeste 0 -- -- 87
2020-11-29 21:00:00 10.8 8 Sudoeste 13 Oeste 0 -- -- 79
2020-11-29 20:00:00 11 10 Oeste 13 Sudoeste 0 -- -- 77
2020-11-29 19:00:00 11.8 8 Sudoeste 10 Sudoeste 0 -- -- 77
2020-11-29 18:00:00 13.6 4 Sur 7 Sur 0 -- -- 72
2020-11-29 17:00:00 14.9 0 Calma 6 Nordeste 0 -- -- 66
2020-11-29 16:00:00 15.6 3 Norte 9 Nordeste 0 -- -- 64
2020-11-29 15:00:00 16.1 3 Nordeste 8 Este 0 -- -- 63
2020-11-29 14:00:00 14.8 3 Norte 9 Nordeste 0 -- -- 67
2020-11-29 13:00:00 14.1 4 Nordeste 9 Este 0 -- -- 68
2020-11-29 12:00:00 12 3 Norte 8 Este 0 -- -- 77
2020-11-29 11:00:00 9.4 5 Nordeste 11 Nordeste 0 -- -- 89
2020-11-29 10:00:00 9.4 0 Calma 6 Nordeste 0 -- -- 87
2020-11-29 09:00:00 9.3 5 Oeste 12 Sudoeste 0 -- -- 87
2020-11-29 08:00:00 8.4 6 Sudoeste 14 Sudoeste 0 -- -- 89
2020-11-29 07:00:00 7.8 7 Sudoeste 11 Oeste 0 -- -- 90
2020-11-29 06:00:00 8.2 6 Oeste 12 Oeste 0 -- -- 89
2020-11-29 05:00:00 8.6 4 Norte 10 Norte 0 -- -- 88
2020-11-29 04:00:00 8.6 5 Norte 9 Norte 0 -- -- 87
2020-11-29 03:00:00 8.1 2 Sudeste 8 Este 0 -- -- 86
2020-11-29 02:00:00 8.3 2 Oeste 4 Sudoeste 0 -- -- 87
2020-11-29 01:00:00 7 0 Calma 7 Noroeste 0 -- -- 88
2020-11-29 00:00:00 9.4 6 Noroeste 8 Noroeste 0 -- -- 82
2020-11-28 23:00:00 9.7 6 Oeste 12 Noroeste 0 -- -- 83
2020-11-28 22:00:00 10.5 9 Oeste 15 Oeste 0 -- -- 79
2020-11-28 21:00:00 11.4 6 Oeste 10 Oeste 0 -- -- 74
2020-11-28 20:00:00 11 10 Oeste 12 Oeste 0 -- -- 80
2020-11-28 19:00:00 10.7 4 Sudoeste 8 Sudoeste 0 -- -- 83
2020-11-28 18:00:00 11.3 4 Sudoeste 6 Sudoeste 0 -- -- 82
2020-11-28 17:00:00 11.8 3 Este 17 Este 0 -- -- 77
2020-11-28 16:00:00 12.8 12 Este 22 Este 0 -- -- 68
2020-11-28 15:00:00 12.8 7 Sur 13 Sur 0 -- -- 69
2020-11-28 14:00:00 12.8 8 Sudeste 13 Sudeste 0 -- -- 69
2020-11-28 13:00:00 12.7 4 Nordeste 12 Norte 0 -- -- 68
2020-11-28 12:00:00 12 9 Norte 17 Norte 0 -- -- 76
2020-11-28 11:00:00 11.1 10 Noroeste 14 Noroeste 0 -- -- 80
2020-11-28 10:00:00 7.8 8 Norte 13 Norte 0 -- -- 90
2020-11-28 09:00:00 9 5 Noroeste 9 Oeste 0 -- -- 82
2020-11-28 08:00:00 8.6 3 Noroeste 12 Noroeste 0 -- -- 85
2020-11-28 07:00:00 8.6 10 Noroeste 15 Noroeste 0 -- -- 86
2020-11-28 06:00:00 8.1 8 Noroeste 10 Noroeste 0 -- -- 92
2020-11-28 05:00:00 8.2 8 Noroeste 9 Noroeste 0 -- -- 93
2020-11-28 04:00:00 8.8 4 Este 9 Nordeste 0.2 -- -- 91
2020-11-28 03:00:00 9.3 3 Sudeste 10 Este 0 -- -- 89
2020-11-28 02:00:00 9.7 6 Este 12 Este 0 -- -- 87
2020-11-28 01:00:00 10.1 3 Sur 15 Este 0 -- -- 84
2020-11-28 00:00:00 10.5 12 Este 20 Sudeste 0 -- -- 82
2020-11-27 23:00:00 11.1 9 Este 22 Sudeste 0 -- -- 76
2020-11-27 22:00:00 11.1 10 Sudeste 15 Sudeste 0 -- -- 77
2020-11-27 21:00:00 11.8 8 Sudeste 20 Sudeste 0 -- -- 75
2020-11-27 20:00:00 12.2 13 Sudeste 24 Sudeste 0 -- -- 74
2020-11-27 19:00:00 12.6 9 Este 33 Este 0 -- -- 72
2020-11-27 18:00:00 13.2 20 Este 32 Este 0 -- -- 69
2020-11-27 17:00:00 13.4 11 Sudeste 24 Sudeste 0 -- -- 71
2020-11-27 16:00:00 13.9 12 Sudeste 24 Sudeste 0 -- -- 72
2020-11-27 15:00:00 13.6 10 Sudeste 24 Sudeste 0 -- -- 74
2020-11-27 14:00:00 13.5 12 Este 28 Este 0 -- -- 75
2020-11-27 13:00:00 13.2 12 Este 23 Sudeste 0 -- -- 78
2020-11-27 12:00:00 12.4 5 Nordeste 10 Este 0 -- -- 81
2020-11-27 11:00:00 11.9 5 Este 12 Este 0 -- -- 82
2020-11-27 10:00:00 11.2 2 Sudeste 10 Sudeste 0 -- -- 82
2020-11-27 09:00:00 11.5 6 Sudeste 11 Este 0 -- -- 80
2020-11-27 08:00:00 10.4 3 Sudeste 9 Sudoeste 0 -- -- 86
2020-11-27 07:00:00 10.3 4 Noroeste 8 Noroeste 0.2 -- -- 86
2020-11-27 06:00:00 10.2 4 Noroeste 9 Noroeste 0 -- -- 90
2020-11-27 05:00:00 9.8 8 Noroeste 10 Noroeste 0 -- -- 91
2020-11-27 04:00:00 10.1 0 Calma 8 Norte 1 -- -- 91
2020-11-27 03:00:00 10.3 0 Calma 7 Norte 0.6 -- -- 90
2020-11-27 02:00:00 10.2 3 Sudoeste 6 Sudoeste 0 -- -- 90
2020-11-27 01:00:00 10.6 5 Este 10 Este 0 -- -- 89
2020-11-27 00:00:00 10.5 5 Sudoeste 7 Sudoeste 0 -- -- 91
2020-11-26 23:00:00 10.7 4 Sur 9 Sudeste 0 -- -- 91
2020-11-26 22:00:00 10.5 3 Sudoeste 12 Sudeste 0 -- -- 91
2020-11-26 21:00:00 11.2 7 Sudeste 13 Sudeste 0 -- -- 90
2020-11-26 20:00:00 11.4 2 Sudoeste 12 Este 0 -- -- 90
2020-11-26 19:00:00 11.7 4 Sudeste 18 Este 0 -- -- 90
2020-11-26 18:00:00 12.1 10 Este 17 Este 0 -- -- 88
2020-11-26 17:00:00 12.5 4 Sur 6 Este 0 -- -- 86
2020-11-26 16:00:00 12.3 4 Sur 11 Sudeste 0 -- -- 87
2020-11-26 15:00:00 12 5 Sudeste 21 Sudeste 0.4 -- -- 88
2020-11-26 14:00:00 12.6 12 Sudeste 28 Sudeste 0 -- -- 79
2020-11-26 13:00:00 12.6 14 Sudeste 24 Sudeste 0 -- -- 79
2020-11-26 12:00:00 11 11 Sudeste 20 Sudeste 0 -- -- 82
2020-11-26 11:00:00 10.7 9 Sudeste 15 Sudeste 0 -- -- 85
2020-11-26 10:00:00 9.3 5 Sur 9 Sudeste 0 -- -- 93
2020-11-26 09:00:00 8.8 5 Sur 11 Sur 0 -- -- 92
2020-11-26 08:00:00 8.6 0 Calma 9 Este 0 -- -- 92
2020-11-26 07:00:00 8.6 4 Sudeste 8 Sudeste 0.2 -- -- 92
2020-11-26 06:00:00 8.6 8 Sudeste 13 Sudeste 0 -- -- 92
2020-11-26 05:00:00 7.9 4 Sur 10 Sudeste 0 -- -- 93
2020-11-26 04:00:00 7.5 6 Sur 9 Sudeste 0 -- -- 92
2020-11-26 03:00:00 8.3 7 Sudeste 13 Sudeste 0 -- -- 91
2020-11-26 02:00:00 8.3 5 Sudeste 14 Sudeste 0 -- -- 90
2020-11-26 01:00:00 7.4 4 Sur 14 Sudeste 0 -- -- 89
2020-11-26 00:00:00 8 6 Sudeste 11 Sur 0 -- -- 90
2020-11-25 23:00:00 8.7 8 Sur 18 Sudeste 0 -- -- 87
2020-11-25 22:00:00 9.1 6 Sudeste 13 Sudeste 0 -- -- 86
2020-11-25 21:00:00 10.1 8 Sudeste 16 Sudeste 0 -- -- 83
2020-11-25 20:00:00 10.5 9 Sudeste 15 Sudeste 0 -- -- 80
2020-11-25 19:00:00 10.5 4 Sur 10 Sudeste 0 -- -- 77
2020-11-25 18:00:00 11 6 Sudeste 10 Sudeste 0 -- -- 75
2020-11-25 17:00:00 11.8 6 Sudeste 17 Sudeste 0 -- -- 71
2020-11-25 16:00:00 12.7 8 Sudeste 23 Sur 0 -- -- 67
2020-11-25 15:00:00 12.9 12 Sudeste 21 Este 0 -- -- 67
2020-11-25 14:00:00 11.9 12 Sudeste 19 Sudeste 0 -- -- 68
2020-11-25 13:00:00 11.1 8 Sudeste 15 Sudeste 0 -- -- 69
2020-11-25 12:00:00 12 8 Sudeste 13 Sur 0 -- -- 67
2020-11-25 11:00:00 11.2 6 Sur 9 Sur 0 -- -- 70
2020-11-25 10:00:00 9.2 4 Sudoeste 6 Sudoeste 0 -- -- 81
2020-11-25 09:00:00 6.2 4 Sudoeste 8 Sudoeste 0 -- -- 92
2020-11-25 08:00:00 5.2 7 Sudoeste 9 Sudoeste 0 -- -- 93
2020-11-25 07:00:00 6 0 Calma 6 Sudoeste 0 -- -- 93
2020-11-25 06:00:00 6.2 5 Oeste 7 Sudoeste 0 -- -- 93
2020-11-25 05:00:00 5.6 5 Sudoeste 7 Sudoeste 0 -- -- 93
2020-11-25 04:00:00 5.5 0 Calma 3 Noroeste 0 -- -- 93
2020-11-25 03:00:00 6.7 2 Sudeste 5 Sudeste 0 -- -- 88
2020-11-25 02:00:00 7.1 0 Calma 3 Sur 0 -- -- 86
2020-11-25 01:00:00 7.2 3 Este 8 Nordeste 0 -- -- 86
2020-11-25 00:00:00 7.7 4 Norte 5 Norte 0 -- -- 85
2020-11-24 23:00:00 8.1 0 Calma 7 Norte 0 -- -- 82
2020-11-24 22:00:00 7.7 3 Oeste 5 Oeste 0 -- -- 83
2020-11-24 21:00:00 6.9 3 Sudoeste 5 Sudoeste 0 -- -- 84
2020-11-24 20:00:00 7.1 4 Sudoeste 6 Sudoeste 0 -- -- 80
2020-11-24 19:00:00 7.8 3 Sudoeste 4 Sudoeste 0 -- -- 78
2020-11-24 18:00:00 9 3 Sudeste 9 Sudeste 0 -- -- 75
2020-11-24 17:00:00 10.6 5 Sudeste 10 Sudeste 0 -- -- 67
2020-11-24 16:00:00 11.4 5 Sudeste 15 Sudeste 0 -- -- 59
2020-11-24 15:00:00 12.2 8 Sudeste 14 Sudeste 0 -- -- 57
2020-11-24 14:00:00 11.8 8 Sudeste 14 Sudeste 0 -- -- 60
2020-11-24 13:00:00 10.8 5 Sudeste 11 Sudeste 0 -- -- 63
2020-11-24 12:00:00 10.1 5 Sudeste 9 Sudeste 0 -- -- 66
2020-11-24 11:00:00 8 4 Sur 8 Sur 0 -- -- 72
2020-11-24 10:00:00 4.8 3 Sur 8 Sudoeste 0 -- -- 83
2020-11-24 09:00:00 3.2 4 Sudoeste 6 Sudoeste 0 -- -- 88
2020-11-24 08:00:00 2 0 Calma -- -- 0 -- -- 87
2020-11-24 07:00:00 2.6 0 Calma 5 Sudoeste 0 -- -- 89
2020-11-24 06:00:00 2.4 4 Sudoeste 9 Este 0 -- -- 87
2020-11-24 05:00:00 3.4 6 Este 9 Este 0 -- -- 88
2020-11-24 04:00:00 3.4 0 Calma 5 Este 0 -- -- 86
2020-11-24 03:00:00 3.4 0 Calma -- -- 0 -- -- 86
2020-11-24 02:00:00 4.3 0 Calma -- -- 0 -- -- 81
2020-11-24 01:00:00 4.2 0 Calma 5 Nordeste 0 -- -- 83
2020-11-24 00:00:00 4.6 4 Norte 6 Nordeste 0 -- -- 80
2020-11-23 23:00:00 5.5 0 Calma 2 Sur 0 -- -- 77
2020-11-23 22:00:00 6.8 4 Nordeste 5 Nordeste 0 -- -- 72
2020-11-23 21:00:00 6.9 0 Calma 5 Sudoeste 0 -- -- 71
2020-11-23 20:00:00 7.3 3 Sudoeste 5 Sudoeste 0 -- -- 69
2020-11-23 19:00:00 8.2 5 Sudoeste 6 Sudoeste 0 -- -- 67
2020-11-23 18:00:00 9.8 3 Sur 6 Este 0 -- -- 62
2020-11-23 17:00:00 11.5 3 Nordeste 6 Nordeste 0 -- -- 56
2020-11-23 16:00:00 12.6 0 Calma 9 Nordeste 0 -- -- 53
2020-11-23 15:00:00 12.4 3 Sur 9 Este 0 -- -- 54
2020-11-23 14:00:00 11.5 5 Norte 10 Norte 0 -- -- 56
2020-11-23 13:00:00 10.4 4 Este 9 Este 0 -- -- 61
2020-11-23 12:00:00 9.5 4 Nordeste 8 Nordeste 0 -- -- 65
2020-11-23 11:00:00 7.6 3 Sur 6 Sur 0 -- -- 70
2020-11-23 10:00:00 5.8 2 Norte 6 Nordeste 0 -- -- 74
2020-11-23 09:00:00 2.7 2 Sudoeste 6 Sudoeste 0 -- -- 85
2020-11-23 08:00:00 0.7 0 Calma 6 Sur 0 -- -- 88
2020-11-23 07:00:00 1.6 5 Sur 6 Sur 0 -- -- 84
2020-11-23 06:00:00 2.3 0 Calma -- -- 0 -- -- 84
2020-11-23 05:00:00 2.8 2 Noroeste 8 Norte 0 -- -- 83
2020-11-23 04:00:00 3.7 4 Norte 7 Norte 0 -- -- 80
2020-11-23 03:00:00 3.3 3 Sur 4 Sur 0 -- -- 76
2020-11-23 02:00:00 4.1 3 Este 5 Este 0 -- -- 77
2020-11-23 01:00:00 4.8 0 Calma 5 Oeste 0 -- -- 74
2020-11-23 00:00:00 4.8 5 Oeste 9 Noroeste 0 -- -- 74
2020-11-22 23:00:00 4.8 11 Noroeste 14 Noroeste 0 -- -- 75
2020-11-22 22:00:00 5.7 5 Noroeste 12 Noroeste 0 -- -- 69
2020-11-22 21:00:00 6.7 0 Calma 6 Sudoeste 0 -- -- 67
2020-11-22 20:00:00 7.4 4 Sudoeste 6 Sudoeste 0 -- -- 65
2020-11-22 19:00:00 8 4 Sudoeste 5 Sudoeste 0 -- -- 65
2020-11-22 18:00:00 10 3 Sur 8 Sudeste 0 -- -- 59
2020-11-22 17:00:00 11.9 5 Sudeste 9 Sudeste 0 -- -- 54
2020-11-22 16:00:00 12.7 4 Sudeste 11 Sudeste 0 -- -- 50
2020-11-22 15:00:00 12.9 5 Sudeste 10 Este 0 -- -- 49
2020-11-22 14:00:00 12.4 5 Nordeste 12 Nordeste 0 -- -- 50
2020-11-22 13:00:00 11.4 4 Este 10 Sur 0 -- -- 53
2020-11-22 12:00:00 10.1 5 Sur 10 Sudeste 0 -- -- 56
2020-11-22 11:00:00 8 2 Nordeste 6 Este 0 -- -- 62
2020-11-22 10:00:00 5.4 2 Sudeste 5 Nordeste 0 -- -- 70
2020-11-22 09:00:00 3.1 0 Calma 4 Norte 0 -- -- 76
2020-11-22 08:00:00 1.5 3 Noroeste 8 Noroeste 0 -- -- 80
2020-11-22 07:00:00 1.9 3 Sudoeste 6 Noroeste 0 -- -- 78
2020-11-22 06:00:00 3 0 Calma 4 Noroeste 0 -- -- 78
2020-11-22 05:00:00 3.1 0 Calma 6 Sudoeste 0 -- -- 77
2020-11-22 04:00:00 2.5 2 Sudoeste 6 Sudoeste 0 -- -- 77
2020-11-22 03:00:00 3.1 3 Noroeste 7 Sudoeste 0 -- -- 76
2020-11-22 02:00:00 3.5 5 Sudoeste 8 Sudoeste 0 -- -- 73
2020-11-22 01:00:00 3.4 4 Sudoeste 6 Sudoeste 0 -- -- 72
2020-11-22 00:00:00 4 3 Sudoeste 9 Sudoeste 0 -- -- 70
2020-11-21 23:00:00 4.6 4 Sudoeste 8 Sudoeste 0 -- -- 68
2020-11-21 22:00:00 4.7 6 Sudoeste 10 Sudoeste 0 -- -- 68
2020-11-21 21:00:00 5.2 6 Sudoeste 9 Sudoeste 0 -- -- 66
2020-11-21 20:00:00 5.9 4 Sudoeste 6 Sudoeste 0 -- -- 63
2020-11-21 19:00:00 7.5 3 Sudoeste 5 Sudeste 0 -- -- 57
2020-11-21 18:00:00 9.5 6 Sudeste 9 Sudeste 0 -- -- 50
2020-11-21 17:00:00 11.6 7 Sur 10 Sudeste 0 -- -- 46
2020-11-21 16:00:00 12.6 5 Sur 10 Sudeste 0 -- -- 45
2020-11-21 15:00:00 12.5 6 Sur 11 Sudeste 0 -- -- 45
2020-11-21 14:00:00 11.8 2 Sudoeste 9 Sudoeste 0 -- -- 45
2020-11-21 13:00:00 9.7 6 Nordeste 12 Sudeste 0 -- -- 52
2020-11-21 12:00:00 8.6 4 Sur 14 Sudeste 0 -- -- 55
2020-11-21 11:00:00 6.5 7 Este 12 Este 0 -- -- 64
2020-11-21 10:00:00 4.6 3 Norte 7 Noroeste 0 -- -- 67
2020-11-21 09:00:00 2.8 5 Sudoeste 8 Oeste 0 -- -- 69
2020-11-21 08:00:00 1.4 5 Oeste 9 Sudoeste 0 -- -- 74
2020-11-21 07:00:00 1.6 3 Oeste 7 Sudoeste 0 -- -- 72
2020-11-21 06:00:00 2 4 Noroeste 8 Norte 0 -- -- 71
2020-11-21 05:00:00 1.7 4 Sudoeste 9 Norte 0 -- -- 72
2020-11-21 04:00:00 2.4 4 Oeste 8 Oeste 0 -- -- 69
2020-11-21 03:00:00 3.1 2 Sur 8 Oeste 0 -- -- 64
2020-11-21 02:00:00 4.5 9 Noroeste 10 Noroeste 0 -- -- 60
2020-11-21 01:00:00 5.3 6 Noroeste 12 Noroeste 0 -- -- 55
2020-11-21 00:00:00 5.5 11 Noroeste 18 Noroeste 0 -- -- 58
2020-11-20 23:00:00 5.7 11 Noroeste 23 Noroeste 0 -- -- 59
2020-11-20 22:00:00 6.5 20 Noroeste 35 Noroeste 0 -- -- 57
2020-11-20 21:00:00 7.1 24 Noroeste 34 Noroeste 0 -- -- 55
2020-11-20 20:00:00 8.2 23 Noroeste 35 Noroeste 0 -- -- 50
2020-11-20 19:00:00 9.5 24 Noroeste 33 Noroeste 0 -- -- 43
2020-11-20 18:00:00 10.4 19 Noroeste 32 Noroeste 0 -- -- 40
2020-11-20 17:00:00 13.6 23 Noroeste 36 Noroeste 0 -- -- 34
2020-11-20 16:00:00 15.2 23 Noroeste 36 Noroeste 0 -- -- 31
2020-11-20 15:00:00 15.6 26 Noroeste 39 Noroeste 0 -- -- 32
2020-11-20 14:00:00 15.4 24 Noroeste 34 Noroeste 0 -- -- 34
2020-11-20 13:00:00 14.9 22 Noroeste 33 Noroeste 0 -- -- 36
2020-11-20 12:00:00 13.6 26 Noroeste 37 Noroeste 0 -- -- 39
2020-11-20 11:00:00 12 28 Noroeste 41 Noroeste 0 -- -- 46
2020-11-20 10:00:00 10.2 31 Noroeste 41 Noroeste 0 -- -- 55
2020-11-20 09:00:00 8.6 25 Noroeste 35 Noroeste 0 -- -- 59
2020-11-20 08:00:00 7.3 25 Noroeste 43 Noroeste 0 -- -- 62
2020-11-20 07:00:00 7.1 26 Noroeste 39 Noroeste 0 -- -- 65
2020-11-20 06:00:00 7.1 28 Noroeste 41 Noroeste 0 -- -- 68
2020-11-20 05:00:00 7.4 28 Noroeste 42 Noroeste 0 -- -- 66
2020-11-20 04:00:00 7.6 28 Noroeste 39 Noroeste 0 -- -- 67
2020-11-20 03:00:00 7.4 23 Noroeste 36 Noroeste 0 -- -- 67
2020-11-20 02:00:00 7.9 27 Noroeste 39 Noroeste 0 -- -- 65
2020-11-20 01:00:00 8.3 24 Noroeste 40 Noroeste 0 -- -- 65
2020-11-20 00:00:00 8.7 28 Noroeste 48 Noroeste 0 -- -- 67
2020-11-19 23:00:00 9.3 36 Noroeste 51 Noroeste 0 -- -- 69
2020-11-19 22:00:00 10.1 37 Noroeste 51 Noroeste 0 -- -- 66
2020-11-19 21:00:00 11.1 37 Noroeste 53 Noroeste 0 -- -- 66
2020-11-19 20:00:00 11.8 38 Noroeste 49 Noroeste 0 -- -- 66
2020-11-19 19:00:00 13 30 Noroeste 54 Noroeste 0 -- -- 65
2020-11-19 18:00:00 15 37 Noroeste 63 Noroeste 0 -- -- 61
2020-11-19 17:00:00 17.2 36 Noroeste 50 Noroeste 0 -- -- 57
2020-11-19 16:00:00 19.1 37 Noroeste 51 Noroeste 0 -- -- 54
2020-11-19 15:00:00 20.4 30 Noroeste 45 Noroeste 0 -- -- 53
2020-11-19 14:00:00 19.1 19 Noroeste 29 Noroeste 0 -- -- 60
2020-11-19 13:00:00 16.2 5 Sur 11 Sudeste 0 -- -- 67
2020-11-19 12:00:00 14.5 2 Este 10 Sur 0 -- -- 71
2020-11-19 11:00:00 12.3 4 Sudeste 8 Sudeste 0 -- -- 78
2020-11-19 10:00:00 9.4 3 Nordeste 6 Nordeste 0 -- -- 90
2020-11-19 09:00:00 8.1 0 Calma 7 Norte 0 -- -- 94
2020-11-19 08:00:00 6 6 Noroeste 12 Noroeste 0 -- -- 92
2020-11-19 07:00:00 8.5 3 Sudoeste 6 Oeste 0 -- -- 88
2020-11-19 06:00:00 9 4 Noroeste 9 Noroeste 0 -- -- 91
2020-11-19 05:00:00 8.4 0 Calma 14 Noroeste 0 -- -- 91
2020-11-19 04:00:00 8.9 8 Noroeste 9 Noroeste 0 -- -- 92
2020-11-19 03:00:00 9.1 3 Oeste 8 Noroeste 0 -- -- 90
2020-11-19 02:00:00 9.9 3 Oeste 5 Oeste 0 -- -- 90
2020-11-19 01:00:00 10 5 Oeste 7 Sudoeste 0 -- -- 89
2020-11-19 00:00:00 9.8 5 Sudoeste 6 Sudoeste 0 -- -- 88
2020-11-18 23:00:00 9.6 6 Sudoeste 8 Sudoeste 0 -- -- 90
2020-11-18 22:00:00 10 0 Calma 8 Noroeste 0 -- -- 87
2020-11-18 21:00:00 10.8 4 Norte 8 Sudoeste 0 -- -- 87
2020-11-18 20:00:00 10.9 6 Sudoeste 9 Sudoeste 0 -- -- 87
2020-11-18 19:00:00 11.5 6 Sur 8 Sudeste 0 -- -- 86
2020-11-18 18:00:00 12.9 4 Sur 10 Sudeste 0 -- -- 80
2020-11-18 17:00:00 14.7 9 Sudeste 15 Sur 0 -- -- 73
2020-11-18 16:00:00 16.5 6 Sudeste 12 Sudeste 0 -- -- 64
2020-11-18 15:00:00 17 4 Sudeste 12 Sur 0 -- -- 60
2020-11-18 14:00:00 16 7 Sudeste 14 Sudeste 0 -- -- 62
2020-11-18 13:00:00 14.9 7 Sudeste 13 Sudeste 0 -- -- 65
2020-11-18 12:00:00 14.2 6 Sudeste 12 Este 0 -- -- 68
2020-11-18 11:00:00 13.2 4 Sur 6 Sudeste 0 -- -- 70
2020-11-18 10:00:00 11.5 2 Sudeste 5 Sudoeste 0 -- -- 78
2020-11-18 09:00:00 8 4 Sudoeste 5 Sudoeste 0 -- -- 91
2020-11-18 08:00:00 6.3 2 Noroeste 9 Noroeste 0 -- -- 92
2020-11-18 07:00:00 6.4 4 Noroeste 6 Noroeste 0 -- -- 91
2020-11-18 06:00:00 7.5 3 Sudoeste 5 Sudoeste 0 -- -- 88
2020-11-18 05:00:00 7.7 3 Sudoeste 7 Sudoeste 0 -- -- 88
2020-11-18 04:00:00 7.2 6 Sudoeste 7 Sudoeste 0 -- -- 86
2020-11-18 03:00:00 8 4 Sudoeste 6 Sudoeste 0 -- -- 83
2020-11-18 02:00:00 8.8 3 Sudoeste 6 Sudoeste 0 -- -- 83
2020-11-18 01:00:00 8.9 5 Sudoeste 6 Sudoeste 0 -- -- 83
2020-11-18 00:00:00 8.6 5 Sudoeste 6 Sudoeste 0 -- -- 82
2020-11-17 23:00:00 9.4 3 Sudoeste 7 Sudoeste 0 -- -- 78
2020-11-17 22:00:00 9.9 3 Sudoeste 10 Sudoeste 0 -- -- 76
2020-11-17 21:00:00 10 7 Sudoeste 9 Sudoeste 0 -- -- 77
2020-11-17 20:00:00 10.2 5 Sudoeste 6 Sudoeste 0 -- -- 76
2020-11-17 19:00:00 11.2 4 Sudoeste 9 Sudeste 0 -- -- 74
2020-11-17 18:00:00 12.8 5 Sudeste 12 Sudeste 0 -- -- 68
2020-11-17 17:00:00 14.6 6 Sudeste 14 Sudeste 0 -- -- 62
2020-11-17 16:00:00 15.3 9 Sudeste 14 Este 0 -- -- 59
2020-11-17 15:00:00 15.4 7 Sudeste 13 Sudeste 0 -- -- 58
2020-11-17 14:00:00 15.3 5 Sudeste 14 Sudeste 0 -- -- 58
2020-11-17 13:00:00 14.2 8 Sudeste 17 Sudeste 0 -- -- 61
2020-11-17 12:00:00 12.6 10 Sudeste 18 Sudeste 0 -- -- 65
2020-11-17 11:00:00 11 6 Nordeste 9 Este 0 -- -- 69
2020-11-17 10:00:00 10.7 3 Sudeste 6 Sudeste 0 -- -- 68
2020-11-17 09:00:00 8.3 0 Calma 13 Noroeste 0 -- -- 75
2020-11-17 08:00:00 7.2 10 Noroeste 13 Oeste 0 -- -- 79
2020-11-17 07:00:00 6.2 11 Noroeste 12 Noroeste 0 -- -- 83
2020-11-17 06:00:00 5.7 9 Noroeste 10 Noroeste 0 -- -- 84
2020-11-17 05:00:00 6.3 3 Norte 11 Noroeste 0 -- -- 82
2020-11-17 04:00:00 7.9 7 Norte 9 Noroeste 0 -- -- 78
2020-11-17 03:00:00 7.5 2 Sudoeste 7 Sudoeste 0 -- -- 78
2020-11-17 02:00:00 7 6 Oeste 10 Nordeste 0 -- -- 81
2020-11-17 01:00:00 7.3 9 Nordeste 12 Nordeste 0 -- -- 80
2020-11-17 00:00:00 8.7 8 Norte 18 Oeste 0 -- -- 72
2020-11-16 23:00:00 9.7 9 Oeste 18 Oeste 0 -- -- 68
2020-11-16 22:00:00 10.4 6 Nordeste 33 Oeste 0 -- -- 65
2020-11-16 21:00:00 11.4 17 Oeste 38 Noroeste 0 -- -- 61
2020-11-16 20:00:00 11.9 30 Noroeste 41 Noroeste 0 -- -- 61
2020-11-16 19:00:00 12 24 Noroeste 37 Noroeste 0 -- -- 62
2020-11-16 18:00:00 12.8 22 Noroeste 48 Noroeste 0 -- -- 59
2020-11-16 17:00:00 14.1 30 Noroeste 55 Noroeste 0 -- -- 55
2020-11-16 16:00:00 15.5 34 Noroeste 55 Noroeste 0 -- -- 53
2020-11-16 15:00:00 16.4 35 Noroeste 57 Noroeste 0.2 -- -- 50
2020-11-16 14:00:00 16.7 39 Noroeste 53 Noroeste 0 -- -- 49
2020-11-16 13:00:00 17 32 Noroeste 49 Noroeste 0 -- -- 51
2020-11-16 12:00:00 15.9 33 Noroeste 46 Noroeste 0 -- -- 61
2020-11-16 11:00:00 14.7 31 Noroeste 43 Oeste 0 -- -- 66
2020-11-16 10:00:00 13 31 Oeste 44 Oeste 0 -- -- 73
2020-11-16 09:00:00 11.8 24 Oeste 43 Oeste 0 -- -- 79
2020-11-16 08:00:00 11.1 26 Oeste 41 Oeste 0 -- -- 83
2020-11-16 07:00:00 11.6 22 Oeste 37 Oeste 0 -- -- 83
2020-11-16 06:00:00 12.5 24 Oeste 35 Noroeste 0 -- -- 84
2020-11-16 05:00:00 13.7 21 Oeste 33 Oeste 0 -- -- 86
2020-11-16 04:00:00 14.3 14 Noroeste 23 Noroeste 0 -- -- 87
2020-11-16 03:00:00 14.1 7 Noroeste 17 Oeste 0 -- -- 86
2020-11-16 02:00:00 15.3 9 Oeste 16 Oeste 0 -- -- 80
2020-11-16 01:00:00 14.8 3 Noroeste 10 Norte 0 -- -- 81
2020-11-16 00:00:00 15.2 6 Noroeste 14 Oeste 0 -- -- 80
2020-11-15 23:00:00 14.6 0 Calma 5 Sudeste 0 -- -- 82
2020-11-15 22:00:00 14.7 3 Sudeste 9 Este 0 -- -- 81
2020-11-15 21:00:00 15 4 Sur 12 Este 0 -- -- 81
2020-11-15 20:00:00 15.3 3 Este 9 Sudeste 0 -- -- 79
2020-11-15 19:00:00 15.6 5 Sur 10 Sur 0 -- -- 78
2020-11-15 18:00:00 16.4 5 Sudeste 11 Sudeste 0 -- -- 74
2020-11-15 17:00:00 17.7 5 Este 9 Este 0 -- -- 69
2020-11-15 16:00:00 18 5 Este 10 Este 0 -- -- 66
2020-11-15 15:00:00 18.5 5 Este 14 Este 0 -- -- 64
2020-11-15 14:00:00 18 0 Calma 17 Este 0 -- -- 65
2020-11-15 13:00:00 17.6 8 Este 13 Este 0 -- -- 67
2020-11-15 12:00:00 15.9 6 Sudeste 11 Sudeste 0 -- -- 74
2020-11-15 11:00:00 12.9 5 Nordeste 12 Nordeste 0 -- -- 86
2020-11-15 10:00:00 12.2 6 Nordeste 9 Nordeste 0 -- -- 88
2020-11-15 09:00:00 10.3 4 Sur 9 Sudoeste 0 -- -- 95
2020-11-15 08:00:00 9.3 0 Calma 6 Noroeste 0 -- -- 92
2020-11-15 07:00:00 10.2 0 Calma 4 Nordeste 0 -- -- 92
2020-11-15 06:00:00 10.2 4 Este 8 Sudeste 0 -- -- 91
2020-11-15 05:00:00 10.3 4 Sur 6 Sudoeste 0 -- -- 93
2020-11-15 04:00:00 10.4 4 Sudoeste 6 Sudoeste 0 -- -- 91
2020-11-15 03:00:00 11.5 4 Sudoeste 6 Oeste 0 -- -- 90
2020-11-15 02:00:00 11.6 0 Calma 4 Este 0 -- -- 91
2020-11-15 01:00:00 11.8 4 Este 6 Norte 0 -- -- 90
2020-11-15 00:00:00 12.1 4 Nordeste 7 Este 0 -- -- 89
2020-11-14 23:00:00 12 4 Este 5 Este 0 -- -- 89
2020-11-14 22:00:00 12.2 2 Noroeste 5 Noroeste 0 -- -- 89
2020-11-14 21:00:00 12.5 3 Sudoeste 5 Sudeste 0 -- -- 87
2020-11-14 20:00:00 12.9 2 Sudeste 4 Sudeste 0 -- -- 84
2020-11-14 19:00:00 13.1 3 Sur 4 Sur 0 -- -- 82
2020-11-14 18:00:00 13.3 2 Sudoeste 7 Sur 0 -- -- 81
2020-11-14 17:00:00 13.6 5 Sur 9 Sur 0 -- -- 78
2020-11-14 16:00:00 13.9 5 Sudeste 11 Este 0 -- -- 76
2020-11-14 15:00:00 13.9 7 Este 11 Este 0 -- -- 75
2020-11-14 14:00:00 13.8 9 Sudeste 17 Sudeste 0 -- -- 75
2020-11-14 13:00:00 13.7 9 Sudeste 16 Sudeste 0 -- -- 75
2020-11-14 12:00:00 12.8 7 Sudeste 15 Este 0 -- -- 77
2020-11-14 11:00:00 10.8 2 Sudeste 6 Sur 0 -- -- 89
2020-11-14 10:00:00 9.6 0 Calma 5 Sudeste 0 -- -- 95
2020-11-14 09:00:00 9 0 Calma 4 Este 0 -- -- 96
2020-11-14 08:00:00 8.8 3 Este 6 Nordeste 0 -- -- 96
2020-11-14 07:00:00 8.8 0 Calma 5 Sudoeste 0 -- -- 96
2020-11-14 06:00:00 8.8 0 Calma 5 Nordeste 0 -- -- 96
2020-11-14 05:00:00 9 4 Norte 6 Nordeste 0 -- -- 96
2020-11-14 04:00:00 8.9 0 Calma 4 Sur 0 -- -- 96
2020-11-14 03:00:00 9 3 Noroeste 6 Noroeste 0 -- -- 95
2020-11-14 02:00:00 8.8 3 Noroeste 6 Oeste 0 -- -- 95
2020-11-14 01:00:00 8.2 3 Sudoeste 5 Sudoeste 0 -- -- 95
2020-11-14 00:00:00 8.1 3 Noroeste 5 Noroeste 0 -- -- 95
2020-11-13 23:00:00 8.3 0 Calma 5 Noroeste 0 -- -- 94
2020-11-13 22:00:00 8.2 2 Norte 4 Noroeste 0 -- -- 94
2020-11-13 21:00:00 9 0 Calma 5 Sudeste 0 -- -- 92
2020-11-13 20:00:00 9.1 3 Sudoeste 5 Sudoeste 0 -- -- 91
2020-11-13 19:00:00 9.8 3 Sudoeste 5 Sur 0 -- -- 90
2020-11-13 18:00:00 10.8 4 Sudeste 6 Sudeste 0 -- -- 87
2020-11-13 17:00:00 12 3 Sur 8 Este 0 -- -- 82
2020-11-13 16:00:00 12.5 4 Nordeste 7 Nordeste 0 -- -- 82
2020-11-13 15:00:00 11.4 4 Noroeste 7 Noroeste 0 -- -- 85
2020-11-13 14:00:00 11.4 4 Norte 9 Nordeste 0 -- -- 82
2020-11-13 13:00:00 9.6 3 Noroeste 8 Noroeste 0 -- -- 97
2020-11-13 12:00:00 9.3 3 Sudeste 13 Sur 0 -- -- 97
2020-11-13 11:00:00 9.1 3 Sur 10 Este 0 -- -- 97
2020-11-13 10:00:00 9.1 3 Sudoeste 8 Sur 0 -- -- 97
2020-11-13 09:00:00 8.8 4 Sur 9 Sudeste 0 -- -- 97
2020-11-13 08:00:00 8.4 6 Noroeste 7 Norte 0 -- -- 97
2020-11-13 07:00:00 8.1 3 Norte 5 Nordeste 0 -- -- 97
2020-11-13 06:00:00 8 2 Sur 4 Este 0 -- -- 97
2020-11-13 05:00:00 7.8 0 Calma 4 Sur 0 -- -- 97
2020-11-13 04:00:00 7.5 3 Sur 6 Sur 0 -- -- 97
2020-11-13 03:00:00 7.5 0 Calma 6 Sudoeste 0 -- -- 97
2020-11-13 02:00:00 7.7 4 Sudoeste 6 Sudoeste 0 -- -- 97
2020-11-13 01:00:00 7.8 4 Oeste 6 Oeste 0.2 -- -- 97
2020-11-13 00:00:00 7.7 3 Oeste 5 Oeste 0 -- -- 97
2020-11-12 23:00:00 7.7 2 Sur 7 Este 0 -- -- 97
2020-11-12 22:00:00 7.6 3 Sudeste 7 Sudeste 0 -- -- 97
2020-11-12 21:00:00 7.5 3 Sur 8 Sur 0 -- -- 97
2020-11-12 20:00:00 7.8 3 Sudeste 10 Este 0 -- -- 96
2020-11-12 19:00:00 8.1 2 Sudeste 8 Sur 0 -- -- 97
2020-11-12 18:00:00 8.2 4 Sur 11 Sur 0 -- -- 97
2020-11-12 17:00:00 8.3 6 Sudeste 10 Sudeste 0 -- -- 96
2020-11-12 16:00:00 8.9 3 Sudeste 10 Este 0 -- -- 96
2020-11-12 15:00:00 9.5 2 Sudeste 8 Sudeste 0 -- -- 97
2020-11-12 14:00:00 9 0 Calma 7 Sudeste 0 -- -- 97
2020-11-12 13:00:00 8.6 0 Calma 8 Este 0 -- -- 97
2020-11-12 12:00:00 8.2 4 Norte 9 Nordeste 0 -- -- 97
2020-11-12 11:00:00 7.5 4 Norte 10 Norte 0 -- -- 97
2020-11-12 10:00:00 7.1 3 Norte 6 Norte 0 -- -- 97
2020-11-12 09:00:00 6.6 3 Norte 5 Norte 0 -- -- 97
2020-11-12 08:00:00 6.5 2 Norte 8 Norte 0 -- -- 97
2020-11-12 07:00:00 6.2 5 Noroeste 7 Noroeste 0 -- -- 97
2020-11-12 06:00:00 6.2 2 Noroeste 9 Norte 0 -- -- 97
2020-11-12 05:00:00 6.4 9 Nordeste 10 Nordeste 0 -- -- 96
2020-11-12 04:00:00 6.6 4 Nordeste 8 Sudoeste 0 -- -- 96
2020-11-12 03:00:00 6.4 5 Sudoeste 9 Noroeste 0 -- -- 97
2020-11-12 02:00:00 6.4 7 Noroeste 9 Noroeste 0 -- -- 97
2020-11-12 01:00:00 7.1 4 Noroeste 6 Noroeste 0.2 -- -- 97
2020-11-12 00:00:00 7.4 3 Oeste 9 Norte 0 -- -- 96
2020-11-11 23:00:00 7.4 3 Nordeste 7 Noroeste 0 -- -- 97
2020-11-11 22:00:00 7.4 3 Norte 5 Norte 0 -- -- 96
2020-11-11 21:00:00 7.7 0 Calma 6 Sur 0 -- -- 96
2020-11-11 20:00:00 7.9 4 Sudeste 6 Sur 0 -- -- 96
2020-11-11 19:00:00 8.4 3 Sudeste 9 Sur 0 -- -- 96
2020-11-11 18:00:00 9 0 Calma 8 Sudoeste 0 -- -- 96
2020-11-11 17:00:00 9.1 6 Sur 9 Sudeste 0 -- -- 96
2020-11-11 16:00:00 9.5 2 Sur 8 Sur 0 -- -- 96
2020-11-11 15:00:00 9.4 4 Sudeste 8 Sudeste 0 -- -- 96
2020-11-11 14:00:00 9.2 2 Sur 6 Sur 0 -- -- 96
2020-11-11 13:00:00 8.7 4 Sudeste 8 Sur 0 -- -- 97
2020-11-11 12:00:00 7.7 4 Sur 9 Sur 0 -- -- 96
2020-11-11 11:00:00 7.2 3 Sur 6 Sudeste 0 -- -- 96
2020-11-11 10:00:00 6.7 0 Calma 6 Noroeste 0 -- -- 97
2020-11-11 09:00:00 6.3 2 Nordeste 6 Oeste 0 -- -- 97
2020-11-11 08:00:00 5.5 3 Oeste 5 Noroeste 0.2 -- -- 96
2020-11-11 07:00:00 5.6 2 Norte 5 Noroeste 0 -- -- 96
2020-11-11 06:00:00 5.9 4 Sudoeste 7 Sur 0 -- -- 96
2020-11-11 05:00:00 6.4 0 Calma 5 Noroeste 0 -- -- 96
2020-11-11 04:00:00 6.4 2 Norte 6 Norte 0 -- -- 96
2020-11-11 03:00:00 7 4 Noroeste 6 Noroeste 0 -- -- 96
2020-11-11 02:00:00 7.6 4 Sudoeste 5 Oeste 0.2 -- -- 96
2020-11-11 01:00:00 7.6 3 Noroeste 7 Noroeste 0 -- -- 96
2020-11-11 00:00:00 7.8 3 Noroeste 6 Noroeste 0 -- -- 95
2020-11-10 23:00:00 8.3 3 Sudoeste 9 Sudeste 0 -- -- 95
2020-11-10 22:00:00 8.4 6 Sur 8 Sur 0 -- -- 95
2020-11-10 21:00:00 8.9 7 Sudeste 14 Sudeste 0 -- -- 94
2020-11-10 20:00:00 9.2 11 Sur 14 Sudeste 0 -- -- 93
2020-11-10 19:00:00 10.5 5 Sur 10 Sudeste 0 -- -- 88
2020-11-10 18:00:00 11.7 8 Sudeste 11 Sudeste 0 -- -- 85
2020-11-10 17:00:00 14.2 0 Calma 7 Norte 0 -- -- 74
2020-11-10 16:00:00 13.4 5 Noroeste 9 Noroeste 0 -- -- 77
2020-11-10 15:00:00 12.1 2 Norte 9 Norte 0 -- -- 82
2020-11-10 14:00:00 10.3 5 Norte 9 Oeste 0 -- -- 89
2020-11-10 13:00:00 9.8 4 Este 12 Sur 0 -- -- 90
2020-11-10 12:00:00 9.2 4 Sudeste 9 Este 0 -- -- 92
2020-11-10 11:00:00 8.7 4 Sudeste 8 Sudeste 0 -- -- 92
2020-11-10 10:00:00 9.4 4 Este 10 Sudeste 0 -- -- 88
2020-11-10 09:00:00 9.1 0 Calma 3 Sudeste 0 -- -- 92
2020-11-10 08:00:00 7.8 3 Sur 4 Sudeste 0 -- -- 93
2020-11-10 07:00:00 8.2 3 Este 7 Este 0 -- -- 92
2020-11-10 06:00:00 9.1 3 Norte 13 Noroeste 0 -- -- 89
2020-11-10 05:00:00 9.2 7 Noroeste 12 Noroeste 0 -- -- 88
2020-11-10 04:00:00 10.1 9 Noroeste 14 Noroeste 0 -- -- 85
2020-11-10 03:00:00 11.1 14 Noroeste 22 Noroeste 0 -- -- 83
2020-11-10 02:00:00 11.4 13 Noroeste 25 Oeste 0 -- -- 82
2020-11-10 01:00:00 11.9 19 Oeste 28 Oeste 0 -- -- 81
2020-11-10 00:00:00 11.1 11 Noroeste 21 Oeste 0 -- -- 84
2020-11-09 23:00:00 11.4 15 Noroeste 21 Oeste 0 -- -- 80
2020-11-09 22:00:00 12.2 14 Oeste 21 Noroeste 0 -- -- 81
2020-11-09 21:00:00 12.3 12 Oeste 19 Oeste 0 -- -- 81
2020-11-09 20:00:00 12.9 14 Oeste 17 Oeste 0 -- -- 75
2020-11-09 19:00:00 13.5 9 Oeste 11 Oeste 0 -- -- 74
2020-11-09 18:00:00 14.5 6 Noroeste 8 Noroeste 0 -- -- 72
2020-11-09 17:00:00 15.8 3 Noroeste 8 Norte 0 -- -- 71
2020-11-09 16:00:00 15.6 4 Norte 8 Norte 0 -- -- 71
2020-11-09 15:00:00 15.8 4 Nordeste 10 Sur 0 -- -- 69
2020-11-09 14:00:00 15.7 4 Sur 8 Sur 0 -- -- 73
2020-11-09 13:00:00 12.2 4 Sur 9 Sudeste 0 -- -- 89
2020-11-09 12:00:00 11.4 5 Sudeste 10 Este 0 -- -- 89
2020-11-09 11:00:00 12.1 5 Sur 9 Sur 0 -- -- 81
2020-11-09 10:00:00 9.5 3 Sur 6 Sudoeste 0 -- -- 95
2020-11-09 09:00:00 8.1 5 Sudoeste 8 Sudoeste 0 -- -- 95
2020-11-09 08:00:00 6.9 4 Sudoeste 4 Sudoeste 0 -- -- 95
2020-11-09 07:00:00 7.3 4 Sur 5 Sur 0 -- -- 94
2020-11-09 06:00:00 7.4 0 Calma 5 Sudoeste 0 -- -- 94
2020-11-09 05:00:00 8.7 2 Sur 5 Sudoeste 0 -- -- 94
2020-11-09 04:00:00 8.6 3 Sudoeste 8 Sudoeste 0 -- -- 94
2020-11-09 03:00:00 9.2 5 Sudoeste 9 Sudoeste 0 -- -- 94
2020-11-09 02:00:00 9.3 5 Sudoeste 9 Sudoeste 0 -- -- 92
2020-11-09 01:00:00 9.7 3 Sudoeste 8 Sudoeste 0 -- -- 86
2020-11-09 00:00:00 10.1 3 Sudoeste 6 Sudoeste 0 -- -- 81
2020-11-08 23:00:00 10.2 4 Sudoeste 6 Sudoeste 0 -- -- 81
2020-11-08 22:00:00 11.1 0 Calma 7 Sudoeste 0 -- -- 77
2020-11-08 21:00:00 10.5 5 Sudoeste 8 Sudoeste 0 -- -- 83
2020-11-08 20:00:00 11.1 6 Sudoeste 9 Sudoeste 0 -- -- 81
2020-11-08 19:00:00 12.1 6 Sudoeste 10 Sudoeste 0 -- -- 82
2020-11-08 18:00:00 13.5 3 Sur 9 Sudeste 0 -- -- 82
2020-11-08 17:00:00 14.9 8 Sudeste 13 Sur 0 -- -- 76
2020-11-08 16:00:00 15.4 10 Sudeste 16 Sudeste 0 -- -- 74
2020-11-08 15:00:00 15.1 7 Sudeste 14 Sur 0 -- -- 81
2020-11-08 14:00:00 13.7 9 Sudeste 14 Sudeste 0 -- -- 86
2020-11-08 13:00:00 12.8 6 Este 12 Sudeste 0 -- -- 92
2020-11-08 12:00:00 11.5 7 Sudeste 13 Este 0 -- -- 96
2020-11-08 11:00:00 11 5 Sudeste 9 Sudeste 0 -- -- 96
2020-11-08 10:00:00 10 0 Calma 5 Sur 0 -- -- 96
2020-11-08 09:00:00 8 3 Sudoeste 8 Norte 0 -- -- 96
2020-11-08 08:00:00 7.1 5 Noroeste 10 Noroeste 0 -- -- 96
2020-11-08 07:00:00 7.6 8 Noroeste 13 Noroeste 0 -- -- 95
2020-11-08 06:00:00 9.2 6 Sudoeste 10 Sudoeste 0 -- -- 96
2020-11-08 05:00:00 9.7 4 Sudoeste 10 Sudoeste 0.2 -- -- 95
2020-11-08 04:00:00 10.8 3 Sudoeste 7 Sudoeste 0 -- -- 95
2020-11-08 03:00:00 11.1 0 Calma 5 Noroeste 0 -- -- 95
2020-11-08 02:00:00 11.4 2 Noroeste 6 Noroeste 0 -- -- 95
2020-11-08 01:00:00 11.7 0 Calma 9 Sudeste 0 -- -- 95
2020-11-08 00:00:00 12.2 4 Sudeste 8 Sudeste 0 -- -- 94
2020-11-07 23:00:00 11.9 3 Sur 10 Sudeste 0 -- -- 94
2020-11-07 22:00:00 12 8 Este 10 Sudeste 0 -- -- 90
2020-11-07 21:00:00 12.4 4 Sur 11 Sur 0 -- -- 90
2020-11-07 20:00:00 12.5 9 Sur 14 Sudeste 0 -- -- 87
2020-11-07 19:00:00 12.5 8 Sudeste 14 Sudeste 0 -- -- 88
2020-11-07 18:00:00 13.1 5 Sur 18 Sudeste 0.8 -- -- 88
2020-11-07 17:00:00 13.9 19 Sur 32 Sur 0 -- -- 85
2020-11-07 16:00:00 15 8 Sudeste 19 Sudeste 0 -- -- 89
2020-11-07 15:00:00 15.1 13 Sudeste 23 Sudeste 0.2 -- -- 87
2020-11-07 14:00:00 14.4 13 Sudeste 20 Sudeste 0 -- -- 89
2020-11-07 13:00:00 14 10 Sudeste 17 Sudeste 0 -- -- 92
2020-11-07 12:00:00 13.1 5 Sudeste 10 Sur 0 -- -- 91
2020-11-07 11:00:00 12.6 3 Este 12 Nordeste 0.8 -- -- 92
2020-11-07 10:00:00 11.8 8 Noroeste 37 Sur 7.6 -- -- 92
2020-11-07 09:00:00 13.9 26 Sur 50 Sudeste 4.4 -- -- 91
2020-11-07 08:00:00 15.1 30 Sudeste 60 Sudeste 0 -- -- 80
2020-11-07 07:00:00 15.3 28 Sudeste 52 Sudeste 0 -- -- 77
2020-11-07 06:00:00 15.6 30 Sudeste 58 Sudeste 0 -- -- 76
2020-11-07 05:00:00 15.5 30 Sudeste 49 Sudeste 0 -- -- 76
2020-11-07 04:00:00 15.5 31 Sudeste 54 Sudeste 0 -- -- 77
2020-11-07 03:00:00 15.4 24 Sudeste 42 Sudeste 0 -- -- 79
2020-11-07 02:00:00 15.3 16 Sudeste 35 Sudeste 0 -- -- 79
2020-11-07 01:00:00 15.4 19 Sudeste 35 Este 0 -- -- 78
2020-11-07 00:00:00 15.4 21 Sudeste 41 Este 0 -- -- 77
2020-11-06 23:00:00 15.4 23 Sudeste 45 Sudeste 0 -- -- 77
2020-11-06 22:00:00 15.6 27 Sudeste 47 Sudeste 0 -- -- 76
2020-11-06 21:00:00 15.7 24 Sudeste 44 Sudeste 0 -- -- 76
2020-11-06 20:00:00 15.9 19 Sudeste 38 Sudeste 0 -- -- 77
2020-11-06 19:00:00 16 21 Sudeste 37 Este 0 -- -- 77
2020-11-06 18:00:00 16.1 17 Sudeste 39 Sudeste 0 -- -- 76
2020-11-06 17:00:00 16.3 21 Sudeste 42 Este 0 -- -- 74
2020-11-06 16:00:00 16.4 21 Sudeste 41 Sudeste 0 -- -- 73
2020-11-06 15:00:00 16.5 22 Sudeste 39 Sudeste 0 -- -- 74
2020-11-06 14:00:00 16.5 25 Sudeste 41 Sudeste 0 -- -- 74
2020-11-06 13:00:00 16.3 19 Este 39 Sudeste 0 -- -- 75
2020-11-06 12:00:00 16.4 28 Sudeste 41 Sudeste 0 -- -- 75
2020-11-06 11:00:00 15.7 20 Sudeste 39 Sudeste 0 -- -- 75
2020-11-06 10:00:00 14.2 18 Sudeste 29 Sudeste 0 -- -- 81
2020-11-06 09:00:00 13.3 13 Sudeste 28 Sudeste 0 -- -- 84
2020-11-06 08:00:00 12.9 12 Sudeste 23 Sudeste 0 -- -- 87
2020-11-06 07:00:00 12.3 5 Este 21 Sudeste 0 -- -- 91
2020-11-06 06:00:00 12.4 14 Sudeste 24 Sudeste 0 -- -- 90
2020-11-06 05:00:00 12.3 9 Sudeste 21 Sudeste 0 -- -- 90
2020-11-06 04:00:00 12.5 14 Sudeste 32 Sudeste 0 -- -- 90
2020-11-06 03:00:00 12.6 20 Sudeste 35 Sudeste 0 -- -- 90
2020-11-06 02:00:00 12.3 9 Sudeste 31 Este 0 -- -- 90
2020-11-06 01:00:00 12.2 17 Sudeste 32 Este 0.2 -- -- 89
2020-11-06 00:00:00 12.2 15 Sudeste 36 Este 0.4 -- -- 90
2020-11-05 23:00:00 12.6 13 Sudeste 26 Sudeste 0.8 -- -- 87
2020-11-05 22:00:00 13.2 10 Sudeste 18 Sudeste 0 -- -- 82
2020-11-05 21:00:00 12.8 5 Este 9 Este 0 -- -- 83
2020-11-05 20:00:00 12.8 3 Sur 6 Sudeste 0 -- -- 80
2020-11-05 19:00:00 12.9 3 Sudoeste 6 Nordeste 0 -- -- 81
2020-11-05 18:00:00 13.1 0 Calma 8 Sur 0 -- -- 80
2020-11-05 17:00:00 13.4 6 Sudoeste 9 Sudoeste 0 -- -- 78
2020-11-05 16:00:00 13.6 4 Sudeste 12 Sudeste 0 -- -- 76
2020-11-05 15:00:00 13.8 3 Sur 9 Sudeste 0 -- -- 74
2020-11-05 14:00:00 11.9 3 Sur 8 Sudoeste 0 -- -- 82
2020-11-05 13:00:00 10.4 2 Este 9 Sur 0 -- -- 86
2020-11-05 12:00:00 9.4 5 Sudeste 11 Este 0 -- -- 93
2020-11-05 11:00:00 8.6 5 Sudeste 20 Sudeste 0 -- -- 95
2020-11-05 10:00:00 8 11 Sudeste 18 Sur 0 -- -- 95
2020-11-05 09:00:00 7.6 8 Sudeste 15 Sudeste 0 -- -- 95
2020-11-05 08:00:00 7.1 6 Sudoeste 8 Sudoeste 0 -- -- 94
2020-11-05 07:00:00 7.8 4 Este 6 Sur 0 -- -- 93
2020-11-05 06:00:00 8.5 0 Calma 5 Sudeste 0 -- -- 92
2020-11-05 05:00:00 8.9 3 Nordeste 5 Este 0 -- -- 91
2020-11-05 04:00:00 8.7 0 Calma 5 Sudoeste 0 -- -- 91
2020-11-05 03:00:00 8.6 0 Calma 8 Sudoeste 0 -- -- 91
2020-11-05 02:00:00 8.2 3 Sudoeste 7 Sudoeste 0 -- -- 92
2020-11-05 01:00:00 8.1 4 Sudoeste 8 Noroeste 0 -- -- 92
2020-11-05 00:00:00 8.6 3 Sudoeste 5 Sudoeste 0 -- -- 92
2020-11-04 23:00:00 8.6 0 Calma 7 Norte 0 -- -- 93
2020-11-04 22:00:00 8.5 4 Norte 12 Noroeste 0 -- -- 92
2020-11-04 21:00:00 8.4 4 Sudoeste 5 Sudoeste 0 -- -- 91
2020-11-04 20:00:00 8.2 3 Oeste 7 Sudoeste 0 -- -- 92
2020-11-04 19:00:00 8.3 4 Sudoeste 5 Sudoeste 0 -- -- 92
2020-11-04 18:00:00 8.3 3 Sur 7 Este 0.2 -- -- 90
2020-11-04 17:00:00 8.5 4 Sudeste 13 Sudeste 0.2 -- -- 89
2020-11-04 16:00:00 8.6 8 Sudeste 12 Sudeste 0 -- -- 88
2020-11-04 15:00:00 8.8 3 Sudeste 5 Norte 0 -- -- 86
2020-11-04 14:00:00 8.4 2 Norte 8 Este 0 -- -- 85
2020-11-04 13:00:00 8.2 6 Sudeste 12 Este 0 -- -- 87
2020-11-04 12:00:00 8 3 Norte 8 Este 0 -- -- 86
2020-11-04 11:00:00 7.6 5 Este 9 Este 0.6 -- -- 89
2020-11-04 10:00:00 7.5 6 Sudeste 9 Este 0 -- -- 86
2020-11-04 09:00:00 7.5 3 Este 6 Este 0.2 -- -- 81
2020-11-04 08:00:00 7.3 2 Noroeste 18 Noroeste 0 -- -- 83
2020-11-04 07:00:00 7.5 8 Noroeste 12 Oeste 0.2 -- -- 81
2020-11-04 06:00:00 7.9 6 Oeste 10 Oeste 0 -- -- 79
2020-11-04 05:00:00 8 6 Oeste 15 Oeste 0 -- -- 77
2020-11-04 04:00:00 8 10 Oeste 18 Oeste 0 -- -- 80
2020-11-04 03:00:00 8.2 13 Oeste 22 Noroeste 0.2 -- -- 79
2020-11-04 02:00:00 9.1 16 Noroeste 26 Noroeste 0 -- -- 72
2020-11-04 01:00:00 9.6 18 Noroeste 27 Noroeste 0 -- -- 70
2020-11-04 00:00:00 10.1 20 Noroeste 27 Oeste 0 -- -- 70
2020-11-03 23:00:00 10.2 19 Noroeste 31 Noroeste 0 -- -- 73
2020-11-03 22:00:00 10.6 21 Noroeste 30 Oeste 0 -- -- 73
2020-11-03 21:00:00 11.2 21 Noroeste 28 Noroeste 0 -- -- 71
2020-11-03 20:00:00 11.6 17 Oeste 35 Noroeste 0 -- -- 71
2020-11-03 19:00:00 12 26 Noroeste 40 Noroeste 0 -- -- 73
2020-11-03 18:00:00 13 26 Noroeste 35 Noroeste 0 -- -- 64
2020-11-03 17:00:00 13.1 27 Noroeste 39 Noroeste 0 -- -- 67
2020-11-03 16:00:00 13.4 24 Noroeste 35 Noroeste 0 -- -- 67
2020-11-03 15:00:00 13.7 26 Noroeste 35 Noroeste 0 -- -- 67
2020-11-03 14:00:00 14.2 22 Noroeste 31 Noroeste 0 -- -- 71
2020-11-03 13:00:00 13.6 22 Noroeste 33 Noroeste 0 -- -- 74
2020-11-03 12:00:00 14.2 24 Noroeste 33 Noroeste 0 -- -- 73
2020-11-03 11:00:00 15.2 18 Noroeste 27 Noroeste 0 -- -- 68
2020-11-03 10:00:00 15 15 Noroeste 23 Noroeste 0 -- -- 69
2020-11-03 09:00:00 13.6 4 Sudoeste 8 Sudoeste 0 -- -- 79
2020-11-03 08:00:00 12 7 Norte 10 Norte 0 -- -- 84
2020-11-03 07:00:00 12.4 5 Norte 6 Norte 0 -- -- 82
2020-11-03 06:00:00 13 0 Calma 6 Sudoeste 0 -- -- 81
2020-11-03 05:00:00 12.5 5 Sudoeste 7 Oeste 0 -- -- 81
2020-11-03 04:00:00 12.5 0 Calma 10 Noroeste 0 -- -- 83
2020-11-03 03:00:00 13 2 Oeste 12 Noroeste 0 -- -- 80
2020-11-03 02:00:00 13.2 7 Norte 15 Norte 0 -- -- 79
2020-11-03 01:00:00 16.9 10 Oeste 18 Oeste 0 -- -- 65
2020-11-03 00:00:00 17.1 12 Oeste 17 Oeste 0 -- -- 64
2020-11-02 23:00:00 16.7 8 Oeste 21 Oeste 0 -- -- 65
2020-11-02 22:00:00 17.9 17 Oeste 23 Oeste 0 -- -- 60
2020-11-02 21:00:00 18.4 18 Oeste 24 Oeste 0 -- -- 59
2020-11-02 20:00:00 18.8 15 Oeste 22 Oeste 0 -- -- 58
2020-11-02 19:00:00 19.1 15 Noroeste 18 Oeste 0 -- -- 54
2020-11-02 18:00:00 21.7 4 Norte 6 Norte 0 -- -- 48
2020-11-02 17:00:00 23.6 3 Nordeste 11 Norte 0 -- -- 43
2020-11-02 16:00:00 23.9 5 Norte 10 Nordeste 0 -- -- 42
2020-11-02 15:00:00 23.3 3 Nordeste 10 Norte 0 -- -- 43
2020-11-02 14:00:00 22.9 6 Nordeste 12 Nordeste 0 -- -- 44
2020-11-02 13:00:00 22.1 4 Nordeste 10 Este 0 -- -- 46
2020-11-02 12:00:00 20.3 4 Este 10 Nordeste 0 -- -- 51
2020-11-02 11:00:00 17.9 8 Nordeste 10 Este 0 -- -- 59
2020-11-02 10:00:00 17.6 2 Sudeste 6 Sur 0 -- -- 59
2020-11-02 09:00:00 14.8 4 Sur 6 Sudoeste 0 -- -- 67
2020-11-02 08:00:00 11.7 4 Sudoeste 7 Sudoeste 0 -- -- 77
2020-11-02 07:00:00 12.3 3 Sur 6 Sudoeste 0 -- -- 72
2020-11-02 06:00:00 12.5 4 Sudoeste 10 Sudoeste 0 -- -- 74
2020-11-02 05:00:00 12.1 8 Sudoeste 11 Oeste 0 -- -- 74
2020-11-02 04:00:00 12.8 3 Sudoeste 5 Sudoeste 0 -- -- 71
2020-11-02 03:00:00 12.6 6 Sudoeste 7 Sudoeste 0 -- -- 72
2020-11-02 02:00:00 13.4 4 Sudoeste 4 Sudoeste 0 -- -- 70
2020-11-02 01:00:00 13.7 0 Calma 4 Sudeste 0 -- -- 68
2020-11-02 00:00:00 14.7 4 Sur 12 Sudeste 0 -- -- 61